Flight Track Log - Related Links

Times and Time Zones

All times are in EDT time to prevent confusion due to time zone crossing. See the EJA102 flight status page for this flight to view local times or setup timezone preferences in your user account.

Time Position Orientation Groundspeed Altitude Reporting Facility
EDT Latitude Longitude Course Direction KTS MPH feet Rate Location/Type
Thu 10:23:00 AM 41.7572 -70.1997 290° West 229 264 4,000  Level Boston Center
Thu 10:24:00 AM 41.8272 -70.1556 25° Northeast 255 293 6,600 2,550 Climbing Boston Center
Thu 10:25:00 AM 41.9033 -70.1108 24° Northeast 276 318 9,100 2,450 Climbing Boston Center
Thu 10:26:00 AM 41.9794 -70.0661 24° Northeast 288 331 11,500 2,200 Climbing Boston Center
Thu 10:27:00 AM 42.1088 -70.3994 290° West  Level FlightAware Approximate
Thu 10:27:00 AM 42.0394 -70.1367 319° Northwest 246 283 13,500  Level Boston Center
Thu 10:28:00 AM 42.1475 -70.5447 290° West  Level FlightAware Approximate
Thu 10:28:00 AM 42.0686 -70.2392 291° West 230 265 15,200  Level Boston Center
Thu 10:29:00 AM 42.0956 -70.3500 288° West 273 314 16,700 1,350 Climbing Boston Center
Thu 10:30:00 AM 42.1292 -70.4750 290° West 314 361 17,900 1,350 Climbing Boston Center
Thu 10:31:00 AM 42.1581 -70.5917 289° West 331 381 19,400 1,350 Climbing Boston Center
Thu 10:32:00 AM 42.1933 -70.7139 291° West 344 396 20,600 1,200 Climbing Boston Center
Thu 10:33:00 AM 42.2350 -70.8389 294° West 349 402 21,800 1,150 Climbing Boston Center
Thu 10:34:00 AM 42.2742 -70.9614 293° West 354 407 22,900 1,150 Climbing Boston Center
Thu 10:35:00 AM 42.2778 -71.0933 272° West 343 395 24,100 1,200 Climbing Boston Center
Thu 10:36:00 AM 42.2792 -71.2278 271° West 349 402 25,300 1,100 Climbing Boston Center
Thu 10:37:00 AM 42.2806 -71.3597 271° West 354 407 26,300 1,050 Climbing Boston Center
Thu 10:38:00 AM 42.2839 -71.4831 272° West 367 422 27,400 1,100 Climbing Boston Center
Thu 10:39:00 AM 42.2808 -71.6236 268° West 361 415 28,500 1,050 Climbing Boston Center
Thu 10:40:00 AM 42.2836 -71.7581 272° West 356 410 29,500 1,000 Climbing Boston Center
Thu 10:41:00 AM 42.2825 -71.8928 269° West 356 410 30,500 900 Climbing Boston Center
Thu 10:42:00 AM 42.2872 -72.0303 273° West 362 417 31,300 850 Climbing Boston Center
Thu 10:43:00 AM 42.2875 -72.1650 270° West 362 417 32,200 850 Climbing Boston Center
Thu 10:44:00 AM 42.2878 -72.2997 270° West 362 417 33,000 800 Climbing Boston Center
Thu 10:45:00 AM 42.2878 -72.4400 270° West 362 417 33,800 455 Climbing Boston Center
Thu 10:46:12 AM 42.2878 -72.5775 270° West 362 417 34,000 91 Climbing Boston Center
Thu 10:47:12 AM 42.2894 -72.7544 271° West 380 437 34,000  Level Boston Center
Thu 10:48:12 AM 42.2869 -72.8919 269° West 395 455 34,000  Level Boston Center
Thu 10:49:12 AM 42.2800 -73.0489 267° West 412 474 34,000  Level Boston Center
Thu 10:50:12 AM 42.2664 -73.2058 263° West 423 487 34,000  Level Boston Center
Thu 10:51:12 AM 42.2592 -73.3631 267° West 418 481 34,000  Level Boston Center
Thu 10:52:12 AM 42.2431 -73.5253 262° West 412 474 34,000  Level Boston Center
Thu 10:53:12 AM 42.2289 -73.6767 263° West 412 474 34,000  Level Boston Center
Thu 10:54:12 AM 42.2128 -73.8303 262° West 444 511 34,000  Level Boston Center
Thu 10:55:12 AM 42.1981 -73.9869 263° West 444 511 34,000  Level Boston Center
Thu 10:56:12 AM 42.1833 -74.1408 263° West 432 497 34,000  Level Boston Center
Thu 10:57:12 AM 42.1683 -74.3000 263° West 432 497 34,000  Level Boston Center
Thu 10:58:12 AM 42.1489 -74.4619 261° West 427 491 34,000  Level Boston Center
Thu 10:59:12 AM 42.1356 -74.6156 263° West 427 491 34,000  Level Boston Center
Thu 11:00:12 AM 42.1200 -74.7744 263° West 427 491 34,000  Level Boston Center
Thu 11:01:48 AM 42.0947 -75.0331 263° West 412 474 34,000  Level New York Center
Thu 11:02:49 AM 42.0786 -75.1856 262° West 412 474 34,000  Level New York Center
Thu 11:03:49 AM 42.0542 -75.3347 258° West 412 474 34,000  Level New York Center
Thu 11:04:49 AM 42.0011 -75.4678 242° Southwest 403 464 34,000  Level New York Center
Thu 11:05:50 AM 41.9458 -75.6033 241° Southwest 409 471 34,000  Level New York Center
Thu 11:06:47 AM 41.8903 -75.7386 241° Southwest 414 476 34,000  Level New York Center
Thu 11:07:49 AM 41.8369 -75.8683 241° Southwest 419 482 34,000  Level New York Center
Thu 11:08:48 AM 41.7789 -76.0028 240° Southwest 419 482 34,000  Level New York Center
Thu 11:09:49 AM 41.7253 -76.1319 241° Southwest 419 482 34,000  Level New York Center
Thu 11:10:49 AM 41.6692 -76.2664 241° Southwest 413 475 34,000  Level New York Center
Thu 11:11:50 AM 41.6150 -76.3978 241° Southwest 413 475 34,000  Level New York Center
Thu 11:12:50 AM 41.5586 -76.5317 241° Southwest 413 475 34,000  Level New York Center
Thu 11:13:47 AM 41.5072 -76.6492 240° Southwest 413 475 34,000  Level New York Center
Thu 11:14:49 AM 41.4508 -76.7772 240° Southwest 413 475 34,000  Level New York Center
Thu 11:15:50 AM 41.4144 -76.9178 251° West 408 470 34,000  Level New York Center
Thu 11:16:48 AM 41.3861 -77.0617 255° West 403 464 34,000  Level New York Center
Thu 11:17:49 AM 41.3575 -77.2056 255° West 403 464 34,000  Level New York Center
Thu 11:19:33 AM 41.3064 -77.4539 255° West 393 452 34,000  Level Cleveland Center
Thu 11:20:33 AM 41.2769 -77.6017 255° West 399 459 34,000  Level Cleveland Center
Thu 11:21:33 AM 41.2472 -77.7439 255° West 404 465 34,000  Level Cleveland Center
Thu 11:22:33 AM 41.2194 -77.8861 255° West 404 465 34,000  Level Cleveland Center
Thu 11:23:33 AM 41.1914 -78.0308 256° West 404 465 34,000  Level Cleveland Center
Thu 11:24:33 AM 41.1611 -78.1725 254° West 404 465 34,000  Level Cleveland Center
Thu 11:25:33 AM 41.1331 -78.3169 256° West 404 465 34,000  Level Cleveland Center
Thu 11:26:33 AM 41.1022 -78.4614 254° West 404 465 34,000  Level Cleveland Center
Thu 11:27:33 AM 41.0736 -78.6028 255° West 404 465 34,000  Level Cleveland Center
Thu 11:28:33 AM 41.0447 -78.7467 255° West 404 465 34,000  Level Cleveland Center
Thu 11:29:33 AM 41.0136 -78.8881 254° West 404 465 34,000  Level Cleveland Center
Thu 11:30:33 AM 40.9822 -79.0319 254° West 404 465 34,000  Level Cleveland Center
Thu 11:31:33 AM 40.9528 -79.1728 255° West 404 465 34,000  Level Cleveland Center
Thu 11:32:33 AM 40.9211 -79.3136 253° West 404 465 34,000  Level Cleveland Center
Thu 11:33:33 AM 40.8914 -79.4514 254° West 404 465 34,000  Level Cleveland Center
Thu 11:34:33 AM 40.8633 -79.5811 254° West 404 465 34,000  Level Cleveland Center
Thu 11:35:33 AM 40.8250 -79.7544 254° West 404 465 34,000  Level Cleveland Center
Thu 11:36:33 AM 40.7925 -79.8947 253° West 404 465 34,000  Level Cleveland Center
Thu 11:37:33 AM 40.7600 -80.0294 252° West 411 473 34,000  Level Cleveland Center
Thu 11:38:33 AM 40.7294 -80.1747 255° West 416 479 34,000  Level Cleveland Center
Thu 11:39:33 AM 40.6964 -80.3175 253° West 416 479 34,000  Level Cleveland Center
Thu 11:40:33 AM 40.6592 -80.4736 253° West 416 479 34,000  Level Cleveland Center
Thu 11:41:33 AM 40.6239 -80.6214 253° West 421 484 34,000  Level Cleveland Center
Thu 11:42:33 AM 40.5944 -80.7664 255° West 416 479 34,000  Level Cleveland Center
Thu 11:43:33 AM 40.5586 -80.9164 253° West 421 484 34,000  Level Cleveland Center
Thu 11:44:33 AM 40.5247 -81.0667 254° West 426 490 34,000  Level Cleveland Center
Thu 11:46:28 AM 40.4544 -81.3453 252° West 427 491 34,000  Level Indianapolis Center
Thu 11:47:30 AM 40.4192 -81.4969 253° West 429 494 34,000  Level Indianapolis Center
Thu 11:48:32 AM 40.3817 -81.6461 252° West 428 493 34,000  Level Indianapolis Center
Thu 11:49:34 AM 40.3453 -81.7975 253° West 429 494 34,000  Level Indianapolis Center
Thu 11:50:36 AM 40.3094 -81.9472 253° West 427 491 34,000  Level Indianapolis Center
Thu 11:51:38 AM 40.2728 -82.0961 252° West 425 489 34,000 -677 Level Indianapolis Center
Thu 11:52:40 AM 40.2242 -82.2486 247° West 427 491 32,600 -1,500 Descending Indianapolis Center
Thu 11:53:42 AM 40.1767 -82.3908 246° West 424 488 30,900 -1,597 Descending Indianapolis Center
Thu 11:54:44 AM 40.1303 -82.5367 247° West 430 495 29,300 -1,707 Descending Indianapolis Center
Thu 11:55:45 AM 40.0744 -82.7064 247° West 432 497 27,400 -1,659 Descending Indianapolis Center
Thu 11:56:47 AM 40.0264 -82.8536 247° West 437 503 25,900 -1,500 Descending Indianapolis Center
Thu 11:57:49 AM 39.9775 -82.9986 246° West 434 499 24,300 -1,500 Descending Indianapolis Center
Thu 11:58:51 AM 39.9206 -83.1403 242° Southwest 436 502 22,800 -1,306 Descending Indianapolis Center
Thu 11:59:53 AM 39.8622 -83.2781 241° Southwest 431 496 21,600 -1,452 Descending Indianapolis Center
Thu 12:00:55 PM 39.8036 -83.4136 241° Southwest 420 483 19,800 -1,742 Descending Indianapolis Center
Thu 12:01:57 PM 39.7439 -83.5536 241° Southwest 423 487 18,000 -1,707 Descending Indianapolis Center
Thu 12:02:58 PM 39.6897 -83.6822 241° Southwest 407 468 16,300 -1,659 Descending Indianapolis Center
Thu 12:04:00 PM 39.6367 -83.8067 241° Southwest 392 451 14,600 -1,597 Descending Indianapolis Center
Thu 12:05:02 PM 39.5808 -83.9236 238° Southwest 379 436 13,000 -1,452 Descending Indianapolis Center
Thu 12:06:04 PM 39.5181 -84.0117 227° Southwest 331 381 11,600 -1,258 Descending Indianapolis Center
Thu 12:07:06 PM 39.4617 -84.0914 228° Southwest 302 348 10,400 -1,512 Descending Indianapolis Center
Thu 12:08:07 PM 39.4050 -84.1700 227° Southwest 296 341 8,500 -2,000 Descending Indianapolis Center
Thu 12:09:09 PM 39.3408 -84.2606 228° Southwest 292 336 6,300 -1,984 Descending Indianapolis Center
Thu 12:10:11 PM 39.2864 -84.3208 221° Southwest 269 310 4,400 -1,645 Descending Indianapolis Center
Thu 12:11:13 PM 39.2267 -84.3544 204° Southwest 245 282 2,900 -927 Descending Indianapolis Center
Thu 12:12:14 PM 39.1817 -84.3747 199° South 232 267 2,500 -393 Descending Indianapolis Center
Thu 12:14:00 PM 39.1033 -84.4186 223° Southwest  Level Estimated
Thu 12:21:00 PM 39.1000 -84.4167 57° Northeast  Level FlightAware Approximate

Login

Don't have an account? Register now (free) for customized features, flight alerts, and more!